Hlavní strana
METAR-TAF:

METAR-TAF

Letiště :

Santee_Cooper_Regional_Airport

Manning, Jižní Karolína, Spojené státy americké

zeměpisná šířka: 33-35N, zeměpisná délka: 080-13W, výška: 32 m

Aktuální stav počasí

Zpráva byla vytvořena před 18 minutami, v 09:35 UTC
Bezvětří
Teplota 11°C
Vlhkost vzduchu 100%
Tlak 1019 hPa
Viditelnost: 16.1 km
Jasno

METAR: KMNI 060935Z AUTO 00000KT 10SM CLR 11/11 A3008 RMK AO2

Čas: 05:53 (09:53 UTC)


TAF: chybějící

Stav a předpovědi počasí z více než 4 000 letišť (zprávy METAR a TAF).

Červené a žluté tečky na mapě představují dostupné meteorologické stanice.

Když kurzor umístíte na tečku, zobrazí se název stanice.

Pak kliknutím zobrazíte stav a předpověď počasí.

Chcete-li změnit mapu, kliknutím na zelené tlačítko se znaménkem +mapu přiblížíte, kliknutím na zelené tlačítko se znaménkem – mapu oddálíte a kliknutím na zelené šipky přejdete na sousední mapy.


METAR-TAF: